Time;durP1;ratioP1;P1;durP2;ratioP2;P2;SDS_P1;SDS_P2;PMS_P1;PMS_P2;Temp;Humidity;BMP_temperature;BMP_pressure;BME280_temperature;BME280_humidity;BME280_pressure;Samples;Min_cycle;Max_cycle;Signal;HPM_P1;HPM_P2
2023/04/01 00:00:48;;;;;;;14.65;8.02;;;;;;;;;;2039502;29;20036;-76
2023/04/01 00:02:09;;;;;;;12.10;7.13;;;;;;;;;;2024203;29;20064;-76
2023/04/01 00:03:30;;;;;;;15.68;7.25;;;;;;;;;;2037599;29;20087;-76
2023/04/01 00:04:51;;;;;;;15.43;8.20;;;;;;;;;;2039624;29;20035;-76
2023/04/01 00:06:13;;;;;;;11.10;7.00;;;;;;;;;;2035892;29;20426;-76
2023/04/01 00:07:34;;;;;;;23.17;8.82;;;;;;;;;;2034424;28;20125;-76
2023/04/01 00:08:55;;;;;;;14.65;8.02;;;;;;;;;;2038394;29;20031;-76
2023/04/01 00:10:16;;;;;;;18.25;8.18;;;;;;;;;;2037789;29;20024;-76
2023/04/01 00:11:37;;;;;;;13.85;6.90;;;;;;;;;;2036860;28;20099;-76
2023/04/01 00:12:58;;;;;;;12.88;6.97;;;;;;;;;;2032536;29;20087;-76
2023/04/01 00:14:18;;;;;;;15.40;7.47;;;;;;;;;;2026564;29;20020;-76
2023/04/01 00:15:40;;;;;;;15.30;7.88;;;;;;;;;;2038312;29;20384;-76
2023/04/01 00:17:01;;;;;;;14.93;7.63;;;;;;;;;;2037170;29;20149;-76
2023/04/01 00:18:22;;;;;;;15.88;7.15;;;;;;;;;;2040781;29;20546;-77
2023/04/01 00:19:43;;;;;;;14.20;7.87;;;;;;;;;;2035884;29;20040;-75
2023/04/01 00:21:04;;;;;;;13.18;7.90;;;;;;;;;;2038132;29;20557;-76
2023/04/01 00:22:26;;;;;;;16.08;7.85;;;;;;;;;;2036501;29;20095;-76
2023/04/01 00:23:47;;;;;;;12.93;7.30;;;;;;;;;;2038932;29;20538;-77
2023/04/01 00:25:08;;;;;;;14.93;7.85;;;;;;;;;;2041591;29;20050;-77
2023/04/01 00:26:29;;;;;;;19.83;8.40;;;;;;;;;;2039407;29;21679;-76
2023/04/01 00:27:50;;;;;;;9.33;6.73;;;;;;;;;;2034736;29;20031;-76
2023/04/01 00:29:11;;;;;;;21.17;9.23;;;;;;;;;;2036561;29;20498;-76
2023/04/01 00:30:32;;;;;;;11.88;7.43;;;;;;;;;;2031700;29;20028;-75
2023/04/01 00:31:53;;;;;;;14.95;8.40;;;;;;;;;;2033718;29;20035;-76
2023/04/01 00:33:14;;;;;;;10.52;7.18;;;;;;;;;;2038877;29;20043;-75
2023/04/01 00:34:36;;;;;;;17.80;8.20;;;;;;;;;;2038068;29;20429;-76
2023/04/01 00:36:05;;;;;;;13.57;7.90;;;;;;;;;;2035045;29;20056;-76
2023/04/01 00:37:26;;;;;;;11.88;8.15;;;;;;;;;;2039402;29;20062;-77
2023/04/01 00:38:47;;;;;;;12.85;7.53;;;;;;;;;;2035783;29;20040;-76
2023/04/01 00:40:21;;;;;;;16.77;8.10;;;;;;;;;;2034657;29;20043;-75
2023/04/01 00:41:42;;;;;;;13.50;7.85;;;;;;;;;;2027503;29;20116;-77
2023/04/01 00:43:03;;;;;;;14.60;8.18;;;;;;;;;;2027805;29;20029;-76
2023/04/01 00:44:26;;;;;;;19.27;9.98;;;;;;;;;;2034183;29;20043;-76
2023/04/01 00:45:47;;;;;;;14.77;7.95;;;;;;;;;;2039781;29;20031;-76
2023/04/01 00:47:08;;;;;;;12.38;7.90;;;;;;;;;;2036288;29;20035;-76
2023/04/01 00:48:32;;;;;;;15.07;7.95;;;;;;;;;;2025009;29;20048;-76
2023/04/01 00:49:54;;;;;;;15.60;8.02;;;;;;;;;;2034872;29;20027;-76
2023/04/01 00:51:20;;;;;;;12.02;7.93;;;;;;;;;;2035671;29;20032;-76
2023/04/01 00:52:42;;;;;;;12.98;8.57;;;;;;;;;;2040408;29;20028;-76
2023/04/01 00:54:05;;;;;;;12.70;7.82;;;;;;;;;;2039411;29;20510;-75
2023/04/01 00:55:27;;;;;;;12.32;8.00;;;;;;;;;;2041170;29;20041;-76
2023/04/01 00:56:51;;;;;;;15.15;8.82;;;;;;;;;;2028297;29;20033;-76
2023/04/01 00:58:14;;;;;;;14.00;8.45;;;;;;;;;;2042956;29;20023;-75
2023/04/01 00:59:47;;;;;;;14.13;9.25;;;;;;;;;;2035283;29;20080;-76
2023/04/01 01:01:08;;;;;;;11.25;8.40;;;;;;;;;;2039490;29;20027;-76
2023/04/01 01:02:31;;;;;;;17.65;9.00;;;;;;;;;;2041250;29;20075;-76
2023/04/01 01:03:52;;;;;;;16.20;9.68;;;;;;;;;;2030842;29;20384;-76
2023/04/01 01:05:13;;;;;;;15.88;9.63;;;;;;;;;;2038754;29;20102;-76
2023/04/01 01:06:38;;;;;;;18.38;10.07;;;;;;;;;;2041257;29;20039;-77
2023/04/01 01:07:59;;;;;;;15.70;8.88;;;;;;;;;;2034533;29;20088;-76
2023/04/01 01:09:26;;;;;;;11.02;8.57;;;;;;;;;;2041380;29;20126;-76
2023/04/01 01:10:49;;;;;;;20.90;10.55;;;;;;;;;;2041179;29;20499;-75
2023/04/01 01:12:33;;;;;;;16.20;10.60;;;;;;;;;;2025423;29;20052;-76
2023/04/01 01:13:54;;;;;;;15.30;9.55;;;;;;;;;;2034308;29;20032;-76
2023/04/01 01:15:18;;;;;;;17.15;10.40;;;;;;;;;;2038139;29;20019;-76
2023/04/01 01:16:43;;;;;;;21.92;11.07;;;;;;;;;;2038533;29;20383;-76
2023/04/01 01:18:30;;;;;;;18.00;9.85;;;;;;;;;;2036885;29;20032;-75
2023/04/01 01:20:18;;;;;;;21.65;11.60;;;;;;;;;;2023131;29;20106;-76
2023/04/01 01:21:45;;;;;;;39.13;15.73;;;;;;;;;;2032525;29;20060;-76
2023/04/01 01:23:23;;;;;;;21.23;12.23;;;;;;;;;;2038465;29;20031;-76
2023/04/01 01:24:50;;;;;;;18.15;10.68;;;;;;;;;;2027274;29;20155;-76
2023/04/01 01:26:34;;;;;;;22.65;14.93;;;;;;;;;;2033135;29;20033;-76
2023/04/01 01:28:12;;;;;;;20.15;11.02;;;;;;;;;;2029108;29;20043;-76
2023/04/01 01:29:48;;;;;;;20.02;11.30;;;;;;;;;;2038246;29;20047;-76
2023/04/01 01:31:20;;;;;;;21.73;11.32;;;;;;;;;;2029765;29;20571;-76
2023/04/01 01:32:55;;;;;;;23.48;12.15;;;;;;;;;;2027647;29;20088;-76
2023/04/01 01:34:16;;;;;;;18.08;11.15;;;;;;;;;;2030613;29;20036;-76
2023/04/01 01:35:38;;;;;;;20.77;11.77;;;;;;;;;;2036645;29;20060;-76
2023/04/01 01:36:59;;;;;;;;;;;;;;;;;;2036190;29;20169;-76
2023/04/01 01:38:23;;;;;;;20.30;12.27;;;;;;;;;;2035985;29;20010;-77
2023/04/01 01:39:48;;;;;;;19.63;11.93;;;;;;;;;;2034354;29;20032;-76
2023/04/01 01:41:09;;;;;;;19.85;11.68;;;;;;;;;;2026101;29;21548;-76
2023/04/01 01:42:32;;;;;;;21.75;12.50;;;;;;;;;;2031629;29;20112;-76
2023/04/01 01:43:54;;;;;;;19.17;10.57;;;;;;;;;;2035371;29;20028;-76
2023/04/01 01:45:17;;;;;;;15.77;10.82;;;;;;;;;;2041283;29;20024;-76
2023/04/01 01:46:39;;;;;;;18.80;11.43;;;;;;;;;;2031845;29;20028;-76
2023/04/01 01:48:01;;;;;;;21.23;12.20;;;;;;;;;;2037567;29;20499;-76
2023/04/01 01:49:23;;;;;;;22.15;12.38;;;;;;;;;;2029582;29;20442;-76
2023/04/01 01:50:45;;;;;;;15.77;10.77;;;;;;;;;;2039171;29;20083;-76
2023/04/01 01:52:06;;;;;;;;;;;;;;;;;;2037357;28;20111;-76
2023/04/01 01:53:26;;;;;;;18.58;11.48;;;;;;;;;;2033828;29;19911;-76
2023/04/01 01:54:51;;;;;;;24.95;13.90;;;;;;;;;;2035927;29;20290;-76
2023/04/01 01:56:13;;;;;;;18.67;11.32;;;;;;;;;;2037032;29;20024;-76
2023/04/01 01:57:36;;;;;;;15.95;10.55;;;;;;;;;;2041313;29;20032;-76
2023/04/01 01:59:03;;;;;;;19.02;11.10;;;;;;;;;;2033937;29;20040;-77
2023/04/01 02:00:24;;;;;;;23.15;12.23;;;;;;;;;;2034384;29;20032;-76
2023/04/01 02:01:46;;;;;;;17.38;11.75;;;;;;;;;;2038004;28;20035;-76
2023/04/01 02:03:07;;;;;;;;;;;;;;;;;;2040952;29;20032;-76
2023/04/01 02:04:28;;;;;;;17.20;10.73;;;;;;;;;;2040887;29;20355;-76
2023/04/01 02:05:50;;;;;;;18.40;11.25;;;;;;;;;;2036020;29;20476;-77
2023/04/01 02:07:18;;;;;;;16.20;10.15;;;;;;;;;;2036238;29;20031;-77
2023/04/01 02:08:47;;;;;;;19.70;11.30;;;;;;;;;;2032449;29;20040;-77
2023/04/01 02:10:08;;;;;;;20.30;10.77;;;;;;;;;;2035705;29;20518;-77
2023/04/01 02:11:31;;;;;;;18.75;11.55;;;;;;;;;;2037717;29;20024;-76
2023/04/01 02:12:51;;;;;;;;;;;;;;;;;;2037248;29;20035;-77
2023/04/01 02:14:45;;;;;;;20.38;12.00;;;;;;;;;;2038571;29;19967;-77
2023/04/01 02:16:07;;;;;;;;;;;;;;;;;;2014549;29;20041;-76
2023/04/01 02:17:29;;;;;;;21.90;14.90;;;;;;;;;;2038471;29;20231;-76
2023/04/01 02:18:52;;;;;;;19.05;10.82;;;;;;;;;;2032503;29;20040;-76
2023/04/01 02:20:16;;;;;;;19.92;11.73;;;;;;;;;;2034097;29;20134;-76
2023/04/01 02:21:37;;;;;;;21.92;11.43;;;;;;;;;;2029940;29;20036;-75
2023/04/01 02:22:59;;;;;;;20.30;12.63;;;;;;;;;;2033134;29;20062;-75
2023/04/01 02:24:22;;;;;;;20.25;12.45;;;;;;;;;;2035268;29;20829;-76
2023/04/01 02:25:43;;;;;;;22.92;12.52;;;;;;;;;;2036584;29;20066;-75
2023/04/01 02:27:04;;;;;;;22.98;13.07;;;;;;;;;;2036021;29;20043;-76
2023/04/01 02:28:26;;;;;;;19.83;11.48;;;;;;;;;;2039707;29;20055;-75
2023/04/01 02:29:47;;;;;;;24.20;13.15;;;;;;;;;;2031712;29;20095;-75
2023/04/01 02:31:12;;;;;;;24.58;12.55;;;;;;;;;;2035755;29;20095;-76
2023/04/01 02:32:34;;;;;;;23.13;12.45;;;;;;;;;;2028863;29;20041;-75
2023/04/01 02:33:55;;;;;;;;;;;;;;;;;;2035750;29;20484;-76
2023/04/01 02:35:17;;;;;;;19.50;10.73;;;;;;;;;;2040625;29;19910;-75
2023/04/01 02:36:38;;;;;;;19.35;10.00;;;;;;;;;;2032496;29;20096;-76
2023/04/01 02:37:59;;;;;;;19.70;10.82;;;;;;;;;;2029545;29;20028;-76
2023/04/01 02:39:20;;;;;;;14.82;9.35;;;;;;;;;;2027880;29;20040;-76
2023/04/01 02:40:42;;;;;;;18.05;11.30;;;;;;;;;;2034931;29;20040;-75
2023/04/01 02:42:03;;;;;;;16.85;10.55;;;;;;;;;;2038518;29;20036;-76
2023/04/01 02:43:24;;;;;;;18.98;11.15;;;;;;;;;;2037979;29;20031;-76
2023/04/01 02:44:45;;;;;;;13.00;8.65;;;;;;;;;;2030559;29;20040;-76
2023/04/01 02:46:06;;;;;;;14.02;8.70;;;;;;;;;;2035585;29;20062;-76
2023/04/01 02:47:27;;;;;;;14.02;8.00;;;;;;;;;;2038600;29;20040;-76
2023/04/01 02:48:48;;;;;;;19.13;9.75;;;;;;;;;;2038642;29;20040;-75
2023/04/01 02:50:09;;;;;;;17.00;10.27;;;;;;;;;;2040612;29;20079;-76
2023/04/01 02:51:30;;;;;;;13.02;8.07;;;;;;;;;;2035038;29;20036;-76
2023/04/01 02:52:51;;;;;;;19.48;10.57;;;;;;;;;;2036792;29;20067;-76
2023/04/01 02:54:12;;;;;;;19.85;11.35;;;;;;;;;;2038591;29;20040;-76
2023/04/01 02:55:33;;;;;;;13.27;8.85;;;;;;;;;;2036061;29;20032;-75
2023/04/01 02:56:54;;;;;;;15.48;9.40;;;;;;;;;;2037596;29;20032;-75
2023/04/01 02:58:16;;;;;;;16.15;9.90;;;;;;;;;;2037387;29;20028;-76
2023/04/01 02:59:36;;;;;;;17.95;10.23;;;;;;;;;;2031316;29;20040;-75
2023/04/01 03:00:57;;;;;;;18.10;10.73;;;;;;;;;;2034832;29;20028;-75
2023/04/01 03:02:18;;;;;;;19.02;10.32;;;;;;;;;;2029503;29;20068;-76
2023/04/01 03:03:39;;;;;;;18.45;10.18;;;;;;;;;;2034267;29;20028;-76
2023/04/01 03:05:00;;;;;;;23.92;11.30;;;;;;;;;;2036490;29;20457;-76
2023/04/01 03:06:21;;;;;;;18.33;10.95;;;;;;;;;;2038271;29;20050;-76
2023/04/01 03:07:43;;;;;;;17.73;9.10;;;;;;;;;;2038850;29;20047;-76
2023/04/01 03:09:04;;;;;;;17.42;10.45;;;;;;;;;;2039380;28;20027;-76
2023/04/01 03:10:25;;;;;;;17.98;10.43;;;;;;;;;;2038711;29;20031;-75
2023/04/01 03:11:45;;;;;;;16.90;10.43;;;;;;;;;;2031021;29;20029;-76
2023/04/01 03:13:06;;;;;;;14.63;9.70;;;;;;;;;;2035206;29;20588;-76
2023/04/01 03:14:27;;;;;;;25.95;14.52;;;;;;;;;;2038308;29;20036;-76
2023/04/01 03:15:48;;;;;;;19.30;10.98;;;;;;;;;;2032615;29;20032;-76
2023/04/01 03:17:09;;;;;;;20.15;12.23;;;;;;;;;;2030996;29;20076;-76
2023/04/01 03:18:30;;;;;;;22.98;11.55;;;;;;;;;;2038906;29;20046;-76
2023/04/01 03:19:51;;;;;;;22.02;11.45;;;;;;;;;;2037636;29;20031;-76
2023/04/01 03:21:16;;;;;;;21.20;12.88;;;;;;;;;;2030998;29;20036;-76
2023/04/01 03:22:37;;;;;;;21.85;12.15;;;;;;;;;;2036634;28;20036;-76
2023/04/01 03:23:58;;;;;;;24.17;12.30;;;;;;;;;;2030412;29;20472;-76
2023/04/01 03:25:19;;;;;;;22.15;12.50;;;;;;;;;;2031548;29;20496;-76
2023/04/01 03:26:40;;;;;;;23.15;12.48;;;;;;;;;;2032473;29;20500;-76
2023/04/01 03:28:02;;;;;;;22.90;12.18;;;;;;;;;;2039549;29;20032;-76
2023/04/01 03:29:23;;;;;;;21.67;12.25;;;;;;;;;;2037298;29;20039;-76
2023/04/01 03:30:43;;;;;;;21.83;12.00;;;;;;;;;;2028671;29;20499;-76
2023/04/01 03:32:04;;;;;;;26.48;12.75;;;;;;;;;;2035490;29;20115;-75
2023/04/01 03:33:25;;;;;;;20.77;10.90;;;;;;;;;;2037312;29;20032;-76
2023/04/01 03:34:46;;;;;;;23.92;12.48;;;;;;;;;;2031516;29;20032;-76
2023/04/01 03:36:07;;;;;;;26.25;13.20;;;;;;;;;;2030368;29;20464;-76
2023/04/01 03:37:28;;;;;;;25.63;12.77;;;;;;;;;;2031848;29;20515;-76
2023/04/01 03:38:49;;;;;;;21.95;10.50;;;;;;;;;;2038752;29;20483;-76
2023/04/01 03:40:10;;;;;;;24.25;13.25;;;;;;;;;;2029792;29;20040;-76
2023/04/01 03:41:32;;;;;;;26.65;12.35;;;;;;;;;;2032456;29;20083;-76
2023/04/01 03:42:53;;;;;;;22.40;11.68;;;;;;;;;;2035143;28;20064;-76
2023/04/01 03:44:13;;;;;;;22.08;11.43;;;;;;;;;;2035267;29;20036;-76
2023/04/01 03:45:34;;;;;;;21.17;11.82;;;;;;;;;;2036624;29;20348;-76
2023/04/01 03:46:55;;;;;;;23.98;11.40;;;;;;;;;;2036606;29;20032;-76
2023/04/01 03:48:16;;;;;;;24.35;12.40;;;;;;;;;;2027559;29;20032;-76
2023/04/01 03:49:37;;;;;;;23.83;11.55;;;;;;;;;;2034809;29;20035;-76
2023/04/01 03:50:58;;;;;;;24.42;12.25;;;;;;;;;;2037830;29;20027;-76
2023/04/01 03:52:19;;;;;;;24.08;12.25;;;;;;;;;;2031880;29;20036;-76
2023/04/01 03:53:40;;;;;;;18.80;11.20;;;;;;;;;;2039051;29;20403;-76
2023/04/01 03:55:01;;;;;;;17.40;10.73;;;;;;;;;;2035063;29;20032;-76
2023/04/01 03:56:22;;;;;;;16.88;10.40;;;;;;;;;;2040070;29;20040;-76
2023/04/01 03:57:43;;;;;;;23.80;10.65;;;;;;;;;;2034494;29;20055;-76
2023/04/01 03:59:06;;;;;;;17.88;9.50;;;;;;;;;;2038868;29;20039;-77
2023/04/01 04:00:26;;;;;;;14.95;9.57;;;;;;;;;;2037827;29;20048;-75
2023/04/01 04:01:47;;;;;;;14.57;8.43;;;;;;;;;;2030351;29;20040;-76
2023/04/01 04:03:08;;;;;;;13.32;8.52;;;;;;;;;;2022907;29;20564;-78
2023/04/01 04:04:29;;;;;;;15.05;9.32;;;;;;;;;;2031777;29;20044;-76
2023/04/01 04:05:50;;;;;;;12.88;8.93;;;;;;;;;;2043074;29;20111;-76
2023/04/01 04:07:11;;;;;;;14.57;9.15;;;;;;;;;;2032235;29;20040;-76
2023/04/01 04:08:32;;;;;;;11.38;8.18;;;;;;;;;;2038225;29;20020;-76
2023/04/01 04:09:53;;;;;;;19.27;12.32;;;;;;;;;;2031766;29;20435;-76
2023/04/01 04:11:14;;;;;;;11.98;9.02;;;;;;;;;;2027574;29;20033;-76
2023/04/01 04:12:35;;;;;;;14.93;11.90;;;;;;;;;;2030568;29;20027;-76
2023/04/01 04:13:56;;;;;;;18.88;10.27;;;;;;;;;;2024923;29;20063;-76
2023/04/01 04:15:17;;;;;;;14.25;8.50;;;;;;;;;;2029954;29;20032;-76
2023/04/01 04:16:38;;;;;;;14.55;9.52;;;;;;;;;;2035780;29;20028;-76
2023/04/01 04:17:59;;;;;;;12.98;9.25;;;;;;;;;;2039772;29;20071;-76
2023/04/01 04:19:20;;;;;;;12.20;9.40;;;;;;;;;;2031764;29;20043;-76
2023/04/01 04:20:45;;;;;;;14.20;10.30;;;;;;;;;;2035283;29;20047;-76
2023/04/01 04:22:06;;;;;;;15.05;10.18;;;;;;;;;;2030180;29;20032;-76
2023/04/01 04:23:29;;;;;;;11.25;9.60;;;;;;;;;;2026151;29;20124;-76
2023/04/01 04:24:50;;;;;;;17.17;10.10;;;;;;;;;;2036115;29;20039;-77
2023/04/01 04:26:12;;;;;;;13.38;8.90;;;;;;;;;;2036470;29;20048;-76
2023/04/01 04:27:34;;;;;;;12.48;9.02;;;;;;;;;;2037286;29;20056;-76
2023/04/01 04:28:55;;;;;;;12.43;8.25;;;;;;;;;;2029211;29;20424;-76
2023/04/01 04:30:16;;;;;;;14.82;9.52;;;;;;;;;;2027822;29;20092;-76
2023/04/01 04:31:37;;;;;;;13.55;8.18;;;;;;;;;;2034328;29;20040;-75
2023/04/01 04:32:58;;;;;;;12.55;8.52;;;;;;;;;;2039366;29;20591;-76
2023/04/01 04:34:19;;;;;;;10.90;7.68;;;;;;;;;;2035127;29;20027;-76
2023/04/01 04:35:39;;;;;;;14.95;8.70;;;;;;;;;;2037809;29;20535;-76
2023/04/01 04:37:00;;;;;;;14.18;8.73;;;;;;;;;;2028763;29;20032;-76
2023/04/01 04:38:21;;;;;;;15.30;10.07;;;;;;;;;;2032194;29;20032;-76
2023/04/01 04:39:42;;;;;;;13.77;8.77;;;;;;;;;;2027694;29;20044;-76
2023/04/01 04:41:07;;;;;;;13.45;8.75;;;;;;;;;;2025075;29;20506;-75
2023/04/01 04:42:28;;;;;;;15.85;9.32;;;;;;;;;;2036906;29;20032;-76
2023/04/01 04:43:51;;;;;;;14.60;8.65;;;;;;;;;;2037733;29;20032;-76
2023/04/01 04:45:12;;;;;;;13.25;8.95;;;;;;;;;;2041225;29;20035;-76
2023/04/01 04:46:33;;;;;;;17.17;9.80;;;;;;;;;;2037139;29;20506;-75
2023/04/01 04:47:54;;;;;;;14.35;9.05;;;;;;;;;;2037105;29;20036;-76
2023/04/01 04:49:15;;;;;;;12.45;7.97;;;;;;;;;;2035622;29;20441;-76
2023/04/01 04:50:36;;;;;;;14.88;8.85;;;;;;;;;;2027218;29;20092;-76
2023/04/01 04:51:57;;;;;;;15.60;8.80;;;;;;;;;;2035180;29;20463;-76
2023/04/01 04:53:18;;;;;;;15.32;9.65;;;;;;;;;;2029073;29;20048;-75
2023/04/01 04:54:39;;;;;;;16.48;8.43;;;;;;;;;;2034488;29;20051;-76
2023/04/01 04:56:00;;;;;;;15.80;8.57;;;;;;;;;;2035988;29;20032;-77
2023/04/01 04:57:21;;;;;;;14.35;8.65;;;;;;;;;;2034929;29;20465;-76
2023/04/01 04:58:42;;;;;;;14.23;8.85;;;;;;;;;;2037496;29;20043;-76
2023/04/01 05:00:03;;;;;;;13.48;8.13;;;;;;;;;;2029909;29;20044;-76
2023/04/01 05:01:24;;;;;;;13.95;8.63;;;;;;;;;;2036668;29;20690;-76
2023/04/01 05:02:45;;;;;;;21.37;10.50;;;;;;;;;;2034791;29;20055;-76
2023/04/01 05:04:06;;;;;;;15.32;9.32;;;;;;;;;;2037921;29;20040;-76
2023/04/01 05:05:27;;;;;;;11.65;7.55;;;;;;;;;;2035192;29;20040;-75
2023/04/01 05:06:48;;;;;;;16.75;9.02;;;;;;;;;;2037792;29;20420;-76
2023/04/01 05:08:09;;;;;;;16.30;8.65;;;;;;;;;;2036370;29;20043;-76
2023/04/01 05:09:31;;;;;;;15.25;9.45;;;;;;;;;;2027330;29;20037;-76
2023/04/01 05:10:51;;;;;;;17.50;9.52;;;;;;;;;;2036169;29;20032;-75
2023/04/01 05:12:12;;;;;;;16.88;10.00;;;;;;;;;;2034386;29;20112;-75
2023/04/01 05:13:33;;;;;;;14.75;9.27;;;;;;;;;;2029261;29;20044;-75
2023/04/01 05:14:54;;;;;;;16.67;9.52;;;;;;;;;;2035826;28;20032;-76
2023/04/01 05:16:16;;;;;;;16.45;10.40;;;;;;;;;;2036911;29;20488;-76
2023/04/01 05:17:37;;;;;;;17.00;9.75;;;;;;;;;;2037813;29;20388;-76
2023/04/01 05:18:58;;;;;;;19.70;10.32;;;;;;;;;;2035511;29;20036;-76
2023/04/01 05:20:19;;;;;;;18.08;10.02;;;;;;;;;;2031991;29;20044;-75
2023/04/01 05:21:40;;;;;;;15.45;9.18;;;;;;;;;;2026029;29;20399;-76
2023/04/01 05:23:01;;;;;;;17.10;9.90;;;;;;;;;;2027548;29;20091;-76
2023/04/01 05:24:22;;;;;;;17.58;10.40;;;;;;;;;;2035811;29;20039;-76
2023/04/01 05:25:43;;;;;;;16.40;9.82;;;;;;;;;;2039174;29;20062;-75
2023/04/01 05:27:04;;;;;;;16.95;9.27;;;;;;;;;;2037049;29;20046;-75
2023/04/01 05:28:25;;;;;;;15.73;10.05;;;;;;;;;;2028338;29;20036;-76
2023/04/01 05:29:45;;;;;;;20.08;11.00;;;;;;;;;;2025917;29;20645;-76
2023/04/01 05:31:07;;;;;;;18.50;10.70;;;;;;;;;;2033279;29;20032;-76
2023/04/01 05:32:28;;;;;;;16.13;9.75;;;;;;;;;;2036005;29;20040;-76
2023/04/01 05:33:48;;;;;;;18.50;10.38;;;;;;;;;;2026112;29;20107;-75
2023/04/01 05:35:10;;;;;;;18.60;10.98;;;;;;;;;;2035107;29;20031;-76
2023/04/01 05:36:31;;;;;;;16.52;9.77;;;;;;;;;;2036147;29;20033;-76
2023/04/01 05:37:51;;;;;;;16.85;10.63;;;;;;;;;;2039370;29;20027;-76
2023/04/01 05:39:12;;;;;;;20.92;10.88;;;;;;;;;;2035136;29;20035;-76
2023/04/01 05:40:34;;;;;;;16.42;10.30;;;;;;;;;;2039011;29;20039;-76
2023/04/01 05:41:55;;;;;;;20.48;10.55;;;;;;;;;;2036199;29;20036;-76
2023/04/01 05:43:15;;;;;;;22.85;11.48;;;;;;;;;;2037785;29;20032;-76
2023/04/01 05:44:36;;;;;;;22.83;11.55;;;;;;;;;;2038144;29;20501;-76
2023/04/01 05:45:57;;;;;;;16.48;9.50;;;;;;;;;;2039105;29;20031;-76
2023/04/01 05:47:18;;;;;;;17.98;10.23;;;;;;;;;;2038846;29;20032;-76
2023/04/01 05:48:39;;;;;;;16.20;10.48;;;;;;;;;;2039567;29;20035;-76
2023/04/01 05:50:00;;;;;;;18.45;11.35;;;;;;;;;;2040931;29;20063;-76
2023/04/01 05:51:21;;;;;;;22.95;12.65;;;;;;;;;;2039499;29;20024;-76
2023/04/01 05:52:42;;;;;;;22.30;12.75;;;;;;;;;;2040711;29;20570;-76
2023/04/01 05:54:04;;;;;;;19.58;11.13;;;;;;;;;;2035216;29;20072;-76
2023/04/01 05:55:25;;;;;;;22.02;12.75;;;;;;;;;;2023712;29;20044;-76
2023/04/01 05:56:45;;;;;;;23.83;13.30;;;;;;;;;;2028771;29;20428;-76
2023/04/01 05:58:06;;;;;;;21.77;11.98;;;;;;;;;;2036911;29;20038;-76
2023/04/01 05:59:27;;;;;;;23.38;12.63;;;;;;;;;;2040563;29;20032;-76
2023/04/01 06:00:48;;;;;;;24.63;12.95;;;;;;;;;;2037857;29;20499;-76
2023/04/01 06:02:10;;;;;;;47.13;19.85;;;;;;;;;;2035507;29;20055;-76
2023/04/01 06:03:31;;;;;;;25.48;13.75;;;;;;;;;;2032546;29;20044;-76
2023/04/01 06:05:02;;;;;;;24.90;13.65;;;;;;;;;;2029225;29;20028;-76
2023/04/01 06:06:24;;;;;;;25.95;14.60;;;;;;;;;;2039310;29;20500;-76
2023/04/01 06:07:45;;;;;;;26.67;13.38;;;;;;;;;;2039917;29;20092;-76
2023/04/01 06:09:16;;;;;;;25.02;13.35;;;;;;;;;;2039945;29;20059;-76
2023/04/01 06:11:01;;;;;;;27.17;14.25;;;;;;;;;;2029557;29;20465;-76
2023/04/01 06:12:37;;;;;;;25.33;13.77;;;;;;;;;;2035760;29;20476;-76
2023/04/01 06:14:07;;;;;;;32.00;15.18;;;;;;;;;;2040102;29;20051;-76
2023/04/01 06:15:43;;;;;;;27.00;14.60;;;;;;;;;;2040397;29;20054;-76
2023/04/01 06:17:07;;;;;;;30.75;15.77;;;;;;;;;;2039737;29;20095;-76
2023/04/01 06:18:42;;;;;;;34.17;15.85;;;;;;;;;;2039045;29;20106;-77
2023/04/01 06:20:08;;;;;;;29.58;14.63;;;;;;;;;;2037230;29;20495;-76
2023/04/01 06:21:32;;;;;;;34.05;15.73;;;;;;;;;;2032999;29;20040;-76
2023/04/01 06:23:04;;;;;;;32.78;16.65;;;;;;;;;;2038452;29;20057;-76
2023/04/01 06:24:25;;;;;;;29.15;14.57;;;;;;;;;;2039144;29;20185;-76
2023/04/01 06:25:46;;;;;;;33.20;16.38;;;;;;;;;;2040009;29;20032;-76
2023/04/01 06:27:22;;;;;;;33.40;15.50;;;;;;;;;;2037903;29;20035;-76
2023/04/01 06:28:56;;;;;;;28.90;14.80;;;;;;;;;;2030580;29;20028;-76
2023/04/01 06:30:36;;;;;;;28.48;14.65;;;;;;;;;;2034414;29;20115;-76
2023/04/01 06:32:15;;;;;;;23.77;13.20;;;;;;;;;;2037663;29;20396;-76
2023/04/01 06:33:55;;;;;;;30.25;14.98;;;;;;;;;;2037105;29;20058;-75
2023/04/01 06:35:20;;;;;;;31.00;14.52;;;;;;;;;;2038426;29;20024;-75
2023/04/01 06:37:00;;;;;;;27.50;13.23;;;;;;;;;;2039294;29;20032;-76
2023/04/01 06:38:30;;;;;;;26.77;13.38;;;;;;;;;;2038998;29;20044;-76
2023/04/01 06:40:09;;;;;;;27.40;14.40;;;;;;;;;;2039226;29;20035;-76
2023/04/01 06:41:33;;;;;;;29.00;15.13;;;;;;;;;;2038806;29;20036;-76
2023/04/01 06:43:01;;;;;;;23.10;12.82;;;;;;;;;;2040705;29;20057;-76
2023/04/01 06:44:28;;;;;;;29.13;14.30;;;;;;;;;;2039470;29;20040;-76
2023/04/01 06:45:58;;;;;;;29.95;14.55;;;;;;;;;;2039609;29;20491;-76
2023/04/01 06:47:39;;;;;;;33.67;15.05;;;;;;;;;;2032211;29;20484;-76
2023/04/01 06:49:00;;;;;;;26.25;12.77;;;;;;;;;;2038811;29;20043;-75
2023/04/01 06:50:45;;;;;;;28.95;14.00;;;;;;;;;;2032058;29;20040;-76
2023/04/01 06:52:16;;;;;;;26.15;12.98;;;;;;;;;;2019815;29;20037;-76
2023/04/01 06:53:56;;;;;;;28.85;13.32;;;;;;;;;;2036716;29;20036;-76
2023/04/01 06:55:19;;;;;;;32.30;14.73;;;;;;;;;;2035702;29;20141;-76
2023/04/01 06:56:42;;;;;;;27.50;12.32;;;;;;;;;;2040365;29;20047;-76
2023/04/01 06:58:05;;;;;;;23.50;12.68;;;;;;;;;;2037716;29;20040;-76
2023/04/01 06:59:28;;;;;;;24.77;12.88;;;;;;;;;;2038579;29;20571;-75
2023/04/01 07:00:51;;;;;;;30.45;12.85;;;;;;;;;;2038564;29;20480;-76
2023/04/01 07:02:12;;;;;;;28.98;12.60;;;;;;;;;;2031108;29;20044;-75
2023/04/01 07:03:36;;;;;;;31.35;13.35;;;;;;;;;;2037123;28;20036;-76
2023/04/01 07:04:57;;;;;;;28.08;14.45;;;;;;;;;;2031438;29;20036;-76
2023/04/01 07:06:21;;;;;;;26.80;13.10;;;;;;;;;;2032016;29;20036;-76
2023/04/01 07:07:47;;;;;;;34.05;14.07;;;;;;;;;;2035521;29;20561;-76
2023/04/01 07:09:14;;;;;;;34.30;14.30;;;;;;;;;;2036854;29;20036;-76
2023/04/01 07:10:42;;;;;;;28.80;13.32;;;;;;;;;;2031782;29;20095;-76
2023/04/01 07:12:10;;;;;;;25.70;12.43;;;;;;;;;;2033089;29;20083;-76
2023/04/01 07:13:35;;;;;;;36.60;16.52;;;;;;;;;;2028248;29;20069;-76
2023/04/01 07:14:58;;;;;;;28.38;13.15;;;;;;;;;;2025343;29;20032;-76
2023/04/01 07:16:35;;;;;;;28.23;12.82;;;;;;;;;;2038475;29;20024;-76
2023/04/01 07:18:20;;;;;;;26.77;13.65;;;;;;;;;;2032321;29;20032;-76
2023/04/01 07:19:43;;;;;;;28.98;13.82;;;;;;;;;;2030795;29;20032;-76
2023/04/01 07:21:04;;;;;;;29.80;13.07;;;;;;;;;;2030226;29;20032;-77
2023/04/01 07:22:33;;;;;;;29.30;13.73;;;;;;;;;;2030332;29;20096;-77
2023/04/01 07:23:56;;;;;;;30.77;15.38;;;;;;;;;;2036465;29;20035;-76
2023/04/01 07:25:19;;;;;;;26.92;13.05;;;;;;;;;;2033003;29;20043;-77
2023/04/01 07:26:40;;;;;;;32.08;13.80;;;;;;;;;;2027321;29;20036;-77
2023/04/01 07:28:06;;;;;;;26.65;13.10;;;;;;;;;;2030497;29;20055;-77
2023/04/01 07:29:26;;;;;;;36.70;15.25;;;;;;;;;;2030731;29;20397;-77
2023/04/01 07:31:02;;;;;;;33.63;14.80;;;;;;;;;;2027945;29;20088;-77
2023/04/01 07:32:43;;;;;;;35.42;15.25;;;;;;;;;;2028285;29;20079;-77
2023/04/01 07:34:10;;;;;;;31.63;13.98;;;;;;;;;;2033261;29;20286;-77
2023/04/01 07:35:38;;;;;;;32.28;14.93;;;;;;;;;;2032451;29;20037;-77
2023/04/01 07:37:21;;;;;;;26.88;12.80;;;;;;;;;;2032224;29;20028;-77
2023/04/01 07:38:48;;;;;;;21.90;12.27;;;;;;;;;;2020146;29;20193;-84
2023/04/01 07:40:17;;;;;;;29.73;14.57;;;;;;;;;;2028999;29;20035;-84
2023/04/01 07:42:01;;;;;;;26.67;13.80;;;;;;;;;;2036834;29;20044;-85
2023/04/01 07:43:22;;;;;;;29.30;12.77;;;;;;;;;;2038962;28;20471;-84
2023/04/01 07:44:52;;;;;;;30.40;13.57;;;;;;;;;;2036014;29;20515;-85
2023/04/01 07:46:32;;;;;;;28.75;12.95;;;;;;;;;;2030145;29;20036;-84
2023/04/01 07:48:11;;;;;;;36.55;16.15;;;;;;;;;;2036427;29;20031;-85
2023/04/01 07:49:35;;;;;;;29.77;13.73;;;;;;;;;;2037329;29;20118;-83
2023/04/01 07:51:07;;;;;;;27.33;12.75;;;;;;;;;;2028763;29;20056;-85
2023/04/01 07:52:46;;;;;;;34.67;13.82;;;;;;;;;;2035134;29;20039;-84
2023/04/01 07:54:07;;;;;;;31.63;14.60;;;;;;;;;;2027420;29;20126;-84
2023/04/01 07:55:28;;;;;;;31.27;12.98;;;;;;;;;;2026147;29;20037;-84
2023/04/01 07:56:55;;;;;;;23.52;12.23;;;;;;;;;;2029812;29;20024;-84
2023/04/01 07:58:18;;;;;;;32.90;13.90;;;;;;;;;;2028946;29;20717;-84
2023/04/01 07:59:39;;;;;;;25.55;12.55;;;;;;;;;;2029492;29;20028;-83
2023/04/01 08:01:06;;;;;;;28.92;13.63;;;;;;;;;;2029115;29;20039;-84
2023/04/01 08:02:43;;;;;;;27.10;13.20;;;;;;;;;;2034547;29;20055;-84
2023/04/01 08:04:19;;;;;;;23.38;11.45;;;;;;;;;;2036176;29;20048;-84
2023/04/01 08:05:44;;;;;;;27.33;12.88;;;;;;;;;;2036877;29;20035;-84
2023/04/01 08:07:23;;;;;;;27.55;11.65;;;;;;;;;;2037708;29;20123;-85
2023/04/01 08:08:56;;;;;;;25.95;11.60;;;;;;;;;;2026253;29;20043;-84
2023/04/01 08:10:17;;;;;;;;;;;;;;;;;;2035140;29;20066;-84
2023/04/01 08:11:50;;;;;;;30.45;13.10;;;;;;;;;;2030421;29;20371;-84
2023/04/01 08:13:26;;;;;;;23.83;11.18;;;;;;;;;;2036951;29;20090;-84